Etusivu
METAR-TAF:

METAR-TAF

Lentoasemat :

Changin kansainvälinen lentoasema

Singapore, Singapore

Leveyspiiri: 01-22N, Pituuspiiri: 103-59E, korkeus merenpinnasta: 5 m

Tämänhetkinen sää

Tämä raportti tehtiin 25 minuuttia sitten, kello 08.00 UTC
Tuuli 4 kn etelästä/kaakosta, vaihdellen idän/kaakon ja lännen välillä
Lämpötila 30°C
Kosteus 70%
Ilmanpaine 1008 hPa
Näkyvyys 10 km tai enemmän
Muutamia pilviä 2000 ft:n korkeudessa
Hajonneita pilviä 27000 ft:n korkeudessa

METAR: WSSS 160800Z 16004KT 120V270 9999 FEW020 BKN270 30/24 Q1008 NOSIG

Aika: 16:25 (08:25 UTC)

Sääennuste

Tämä raportti tehtiin 25 minuuttia sitten, kello 08.00 UTC
Ennuste voimassa 16. päivästä klo 08 UTC - 17. päivään klo 12 UTC
Tuuli 6 kn kaakosta
Näkyvyys 10 km tai enemmän
Muutamia pilviä 1800 ft:n korkeudessa, Cumulonimbus.
Hajanaisia pilviä 2000 ft:n korkeudessa

TAF: WSSS 160800Z 1608/1712 14006KT 9999 FEW018CB SCT020

Säähavainnot ja -ennusteet yli 4000 lentoasemalta (METAR- ja TAF-raportit).

Käytössä olevat sääasemat on merkitty karttaan keltaisilla ja punaisilla pisteillä.

Aseta hiiri pisteen päälle nähdäksesi sääaseman nimen.

Klikkaa sitten nähdäksesi säähavainnot ja -ennusteet.

Kartan vaihtaminen: klikkaa mustalla rastilla varustettuja vihreitä pisteitä, niin voit zoomata sisään; viivalla varustettua vihreää pistettä, niin voit zoomata ulos tai vihreitä nuolia, niin pääset viereisille kartoille.


METAR-TAF: